Time;durP1;ratioP1;P1;durP2;ratioP2;P2;SDS_P1;SDS_P2;PMS_P1;PMS_P2;Temp;Humidity;BMP_temperature;BMP_pressure;BME280_temperature;BME280_humidity;BME280_pressure;Samples;Min_cycle;Max_cycle;Signal;HPM_P1;HPM_P2
2022/07/14 00:00:32;;;;;;;24.67;12.93;;;;;;;35.54;45.11;101346.03;6247253;22;20819;-71
2022/07/14 00:02:58;;;;;;;31.10;15.70;;;;;;;35.58;44.96;101349.00;6247451;22;20884;-67
2022/07/14 00:05:24;;;;;;;38.50;17.13;;;;;;;35.49;45.75;101355.00;6244757;23;20386;-68
2022/07/14 00:07:50;;;;;;;44.83;17.20;;;;;;;35.58;45.39;101343.59;6245312;23;20383;-68
2022/07/14 00:10:18;;;;;;;37.87;15.57;;;;;;;35.67;45.78;101347.34;6246671;22;20426;-68
2022/07/14 00:12:45;;;;;;;27.87;15.13;;;;;;;35.57;45.22;101347.41;6244722;23;20470;-68
2022/07/14 00:15:11;;;;;;;52.73;19.90;;;;;;;35.68;45.20;101340.88;6244915;23;20473;-68
2022/07/14 00:17:38;;;;;;;37.77;14.30;;;;;;;35.73;45.10;101340.84;6245202;23;20379;-68
2022/07/14 00:20:06;;;;;;;38.53;17.53;;;;;;;35.78;44.83;101338.88;6245450;23;20413;-69
2022/07/14 00:22:32;;;;;;;26.80;13.93;;;;;;;35.86;45.05;101337.50;6220294;23;20382;-68
2022/07/14 00:24:59;;;;;;;26.97;15.03;;;;;;;35.66;45.43;101335.72;6220115;23;20382;-68
2022/07/14 00:27:26;;;;;;;42.43;15.03;;;;;;;35.69;45.07;101332.47;6244985;23;20504;-68
2022/07/14 00:29:54;;;;;;;36.23;15.10;;;;;;;35.68;45.30;101336.28;6245019;23;20440;-68
2022/07/14 00:32:21;;;;;;;42.63;17.87;;;;;;;35.62;45.17;101326.59;6245029;23;20464;-68
2022/07/14 00:34:48;;;;;;;29.00;15.03;;;;;;;35.88;44.57;101329.94;6244636;23;20409;-71
2022/07/14 00:37:14;;;;;;;31.00;14.07;;;;;;;35.81;45.01;101329.44;6245009;23;20866;-70
2022/07/14 00:39:54;;;;;;;38.80;15.80;;;;;;;35.65;45.50;101319.81;6246365;22;20409;-67
2022/07/14 00:42:36;;;;;;;36.27;14.53;;;;;;;35.74;44.64;101315.47;6244735;22;20695;-68
2022/07/14 00:45:17;;;;;;;29.40;14.77;;;;;;;35.53;44.95;101312.88;6244357;23;20600;-67
2022/07/14 00:47:46;;;;;;;29.23;12.43;;;;;;;35.59;44.80;101305.53;6245828;22;20395;-68
2022/07/14 00:50:16;;;;;;;29.60;14.53;;;;;;;35.63;44.52;101316.59;6246622;23;20509;-68
2022/07/14 00:52:44;;;;;;;38.00;16.83;;;;;;;35.54;45.26;101305.56;6220203;23;20870;-68
2022/07/14 00:55:14;;;;;;;27.93;14.73;;;;;;;35.55;44.61;101311.81;6244418;23;20378;-68
2022/07/14 00:57:41;;;;;;;23.77;14.10;;;;;;;35.62;44.92;101306.91;6244925;23;20382;-68
2022/07/14 01:00:17;;;;;;;36.90;15.80;;;;;;;35.67;44.98;101294.19;6244804;23;20383;-68
2022/07/14 01:02:45;;;;;;;41.27;18.27;;;;;;;35.66;45.03;101303.34;6246718;22;20438;-70
2022/07/14 01:05:13;;;;;;;29.53;13.33;;;;;;;35.55;45.24;101304.50;6244622;23;20413;-70
2022/07/14 01:07:40;;;;;;;25.63;14.13;;;;;;;35.44;44.25;101301.06;6219016;23;20383;-67
2022/07/14 01:10:09;;;;;;;27.97;13.70;;;;;;;35.53;44.29;101301.25;6244599;23;20421;-68
2022/07/14 01:12:36;;;;;;;38.47;16.50;;;;;;;35.45;44.60;101299.16;6244686;23;20754;-67
2022/07/14 01:15:04;;;;;;;30.77;15.10;;;;;;;35.47;45.10;101292.38;6244836;23;20394;-67
2022/07/14 01:17:34;;;;;;;24.97;14.57;;;;;;;35.52;44.86;101289.66;6219755;23;20386;-68
2022/07/14 01:20:02;;;;;;;31.77;16.27;;;;;;;35.60;44.54;101285.56;6246247;22;20343;-68
2022/07/14 01:22:29;;;;;;;31.03;16.67;;;;;;;35.56;44.78;101278.34;6245985;22;20351;-68
2022/07/14 01:24:56;;;;;;;20.13;13.77;;;;;;;35.52;44.72;101286.16;6246328;22;20359;-68
2022/07/14 01:27:22;;;;;;;26.40;11.83;;;;;;;35.50;44.80;101285.66;6244531;23;20407;-71
2022/07/14 01:29:50;;;;;;;47.13;15.73;;;;;;;35.57;44.93;101279.94;6245920;22;20359;-70
2022/07/14 01:32:16;;;;;;;28.63;14.40;;;;;;;35.67;44.62;101278.00;6246550;22;20355;-68
2022/07/14 01:34:47;;;;;;;30.50;13.57;;;;;;;35.60;44.65;101277.47;6244226;23;20379;-68
2022/07/14 01:37:13;;;;;;;35.63;13.10;;;;;;;35.70;44.48;101274.72;6246296;22;20390;-68
2022/07/14 01:39:40;;;;;;;41.73;15.03;;;;;;;35.66;44.93;101265.56;6243618;23;20383;-68
2022/07/14 01:42:08;;;;;;;40.00;15.43;;;;;;;35.59;45.06;101259.69;6218970;23;20391;-68
2022/07/14 01:44:40;;;;;;;37.57;15.70;;;;;;;35.71;45.00;101262.03;6244050;22;20450;-68
2022/07/14 01:47:06;;;;;;;31.63;13.80;;;;;;;35.66;44.54;101259.34;6246042;22;20378;-68
2022/07/14 01:49:37;;;;;;;28.33;15.83;;;;;;;35.58;45.13;101252.66;6244862;23;20408;-69
2022/07/14 01:52:05;;;;;;;30.63;15.07;;;;;;;35.67;44.90;101252.91;6245998;22;20414;-69
2022/07/14 01:54:31;;;;;;;44.03;14.87;;;;;;;35.69;44.18;101248.00;6244041;23;20389;-68
2022/07/14 01:56:57;;;;;;;32.07;13.30;;;;;;;35.65;44.73;101249.66;6243927;23;20478;-67
2022/07/14 01:59:23;;;;;;;28.90;14.63;;;;;;;35.66;44.41;101262.84;6219017;23;20842;-70
2022/07/14 02:01:50;;;;;;;38.20;15.87;;;;;;;35.65;44.46;101252.34;6244241;23;20381;-70
2022/07/14 02:04:18;;;;;;;32.50;16.13;;;;;;;35.68;45.48;101255.31;6244094;23;20383;-68
2022/07/14 02:06:49;;;;;;;34.00;16.43;;;;;;;35.81;45.00;101259.25;6218972;23;20443;-68
2022/07/14 02:09:19;;;;;;;44.20;19.63;;;;;;;35.75;45.05;101247.69;6244362;23;20389;-69
2022/07/14 02:14:31;;;;;;;31.90;15.80;;;;;;;35.68;44.48;101236.41;6244157;23;20354;-68
2022/07/14 02:17:00;;;;;;;38.70;16.40;;;;;;;35.75;45.09;101249.59;6245790;22;20450;-69
2022/07/14 02:19:28;;;;;;;37.17;15.10;;;;;;;35.68;45.19;101246.41;6243960;23;20378;-69
2022/07/14 02:21:55;;;;;;;47.87;18.73;;;;;;;35.72;45.00;101245.53;6243940;23;20389;-68
2022/07/14 02:24:22;;;;;;;49.77;20.60;;;;;;;35.71;44.35;101246.63;6244112;23;20394;-70
2022/07/14 02:26:53;;;;;;;40.47;15.43;;;;;;;35.75;44.16;101247.69;6243827;23;20789;-70
2022/07/14 02:29:22;;;;;;;40.80;15.77;;;;;;;35.42;45.32;101243.88;6243821;23;20425;-68
2022/07/14 02:31:51;;;;;;;38.37;16.57;;;;;;;35.50;45.17;101235.19;6243821;23;20418;-68
2022/07/14 02:34:17;;;;;;;33.77;14.37;;;;;;;35.63;44.86;101224.84;6244022;23;20853;-68
2022/07/14 02:36:45;;;;;;;41.50;17.57;;;;;;;35.68;44.97;101233.72;6244145;23;20386;-68
2022/07/14 02:39:13;;;;;;;33.33;17.27;;;;;;;35.57;45.39;101223.28;6243962;23;20382;-70
2022/07/14 02:41:41;;;;;;;33.27;11.90;;;;;;;35.58;44.86;101223.00;6243849;23;20371;-70
2022/07/14 02:44:09;;;;;;;43.00;15.37;;;;;;;35.58;45.14;101219.50;6243699;22;20442;-68
2022/07/14 02:46:37;;;;;;;32.50;17.97;;;;;;;35.43;45.38;101215.81;6245193;22;20382;-68
2022/07/14 02:49:05;;;;;;;28.83;14.73;;;;;;;35.53;45.09;101212.22;6245277;22;20359;-68
2022/07/14 02:51:32;;;;;;;32.10;18.03;;;;;;;35.45;45.06;101216.34;6243665;23;20493;-70
2022/07/14 02:54:00;;;;;;;31.13;15.93;;;;;;;35.44;45.02;101212.03;6243684;23;20957;-70
2022/07/14 02:56:29;;;;;;;34.33;17.10;;;;;;;35.41;44.95;101215.25;6242191;23;20390;-70
2022/07/14 02:58:58;;;;;;;47.33;18.00;;;;;;;35.35;45.48;101213.66;6244087;23;20535;-70
2022/07/14 03:01:24;;;;;;;28.67;15.33;;;;;;;35.38;45.60;101206.91;6245977;22;20363;-68
2022/07/14 03:03:50;;;;;;;38.57;17.33;;;;;;;35.36;45.95;101214.47;6243711;23;20385;-68
2022/07/14 03:06:19;;;;;;;25.40;14.20;;;;;;;35.48;45.08;101218.50;6242873;23;20878;-69
2022/07/14 03:08:45;;;;;;;33.20;15.83;;;;;;;35.38;45.58;101221.22;6243856;23;20413;-68
2022/07/14 03:11:13;;;;;;;31.33;15.27;;;;;;;35.17;45.67;101223.25;6245527;23;20414;-68
2022/07/14 03:13:41;;;;;;;27.77;12.40;;;;;;;35.37;44.27;101225.00;6244854;22;20384;-68
2022/07/14 03:16:09;;;;;;;24.67;13.07;;;;;;;35.37;43.48;101230.41;6243261;23;20473;-68
2022/07/14 03:18:39;;;;;;;30.23;12.23;;;;;;;35.26;43.91;101229.66;6243065;23;20384;-68
2022/07/14 03:21:09;;;;;;;32.37;13.40;;;;;;;35.40;44.03;101223.63;6245169;22;20347;-68
2022/07/14 03:23:36;;;;;;;27.10;14.40;;;;;;;35.26;44.27;101228.84;6242600;23;20382;-68
2022/07/14 03:26:05;;;;;;;37.10;16.77;;;;;;;35.36;44.22;101220.69;6243691;23;20879;-68
2022/07/14 03:28:31;;;;;;;27.63;14.70;;;;;;;35.44;44.40;101228.22;6218329;23;20383;-68
2022/07/14 03:30:59;;;;;;;34.27;15.63;;;;;;;35.47;44.93;101224.13;6243728;23;20429;-68
2022/07/14 03:33:25;;;;;;;32.27;15.60;;;;;;;35.38;44.99;101215.81;6245630;22;20365;-68
2022/07/14 03:35:53;;;;;;;41.07;15.83;;;;;;;35.20;45.57;101219.97;6243377;23;20477;-68
2022/07/14 03:38:19;;;;;;;33.63;15.17;;;;;;;35.24;45.35;101212.16;6245143;22;20378;-68
2022/07/14 03:40:46;;;;;;;34.23;14.07;;;;;;;35.34;45.11;101212.06;6244984;22;20529;-72
2022/07/14 03:43:13;;;;;;;33.70;16.77;;;;;;;35.13;45.73;101221.38;6245129;22;20497;-70
2022/07/14 03:45:45;;;;;;;35.33;16.27;;;;;;;35.21;45.66;101220.78;6248093;22;20869;-71
2022/07/14 03:48:11;;;;;;;30.53;15.33;;;;;;;35.30;45.43;101211.03;6248114;22;20378;-70
2022/07/14 03:50:39;;;;;;;33.70;13.30;;;;;;;35.30;45.54;101216.41;6248271;22;20432;-70
2022/07/14 03:53:05;;;;;;;34.83;16.23;;;;;;;35.19;45.85;101218.38;6275803;22;20369;-70
2022/07/14 03:55:32;;;;;;;34.60;14.30;;;;;;;35.36;45.24;101217.16;6248695;22;20405;-70
2022/07/14 03:58:01;;;;;;;31.10;13.37;;;;;;;35.50;45.19;101218.19;6275238;22;20678;-70
2022/07/14 04:00:27;;;;;;;27.47;15.83;;;;;;;35.49;44.93;101214.69;6248242;22;20440;-72
2022/07/14 04:02:54;;;;;;;32.80;15.00;;;;;;;35.46;45.11;101214.44;6248430;22;20381;-70
2022/07/14 04:05:21;;;;;;;35.17;17.50;;;;;;;35.52;44.96;101211.44;6248345;22;20419;-70
2022/07/14 04:07:48;;;;;;;27.73;13.27;;;;;;;35.53;44.87;101212.22;6275789;22;20407;-71
2022/07/14 04:10:17;;;;;;;35.30;16.37;;;;;;;35.54;45.56;101227.31;6272824;22;20429;-70
2022/07/14 04:12:44;;;;;;;24.80;15.20;;;;;;;35.38;45.59;101223.09;6248344;22;20405;-70
2022/07/14 04:15:10;;;;;;;33.13;16.60;;;;;;;35.25;45.83;101232.63;6247166;22;20374;-70
2022/07/14 04:17:36;;;;;;;44.50;16.10;;;;;;;35.24;45.38;101226.44;6247993;22;20405;-70
2022/07/14 04:20:06;;;;;;;29.30;14.40;;;;;;;35.16;45.82;101226.19;6275385;22;20343;-70
2022/07/14 04:22:34;;;;;;;31.93;16.20;;;;;;;34.95;46.01;101222.81;6275163;22;20842;-70
2022/07/14 04:25:02;;;;;;;34.17;15.47;;;;;;;35.11;45.95;101223.50;6248310;22;20467;-70
2022/07/14 04:27:28;;;;;;;33.07;15.83;;;;;;;35.05;45.61;101228.16;6248442;22;20388;-70
2022/07/14 04:29:59;;;;;;;28.10;14.33;;;;;;;35.27;45.53;101220.47;6249800;22;20396;-71
2022/07/14 04:32:27;;;;;;;32.33;14.97;;;;;;;35.27;45.39;101214.28;6250216;22;20462;-70
2022/07/14 04:34:55;;;;;;;45.40;17.50;;;;;;;35.22;45.81;101215.09;6250054;22;20801;-70
2022/07/14 04:37:21;;;;;;;39.93;17.93;;;;;;;35.06;46.06;101212.78;6250129;22;20413;-67
2022/07/14 04:39:47;;;;;;;25.80;13.07;;;;;;;35.12;45.34;101217.06;6250047;22;20392;-67
2022/07/14 04:42:15;;;;;;;28.30;14.63;;;;;;;35.31;45.25;101217.22;6249926;22;20432;-68
2022/07/14 04:44:41;;;;;;;51.47;17.33;;;;;;;35.30;45.29;101213.72;6249700;22;20935;-68
2022/07/14 04:47:09;;;;;;;28.70;15.20;;;;;;;35.30;44.79;101215.59;6276984;22;20380;-68
2022/07/14 04:52:52;;;;;;;44.30;16.10;;;;;;;35.32;45.00;101229.63;6153931;23;20872;-68
2022/07/14 04:55:18;;;;;;;41.47;19.93;;;;;;;35.34;44.93;101230.94;6153869;23;20932;-69
2022/07/14 04:57:49;;;;;;;36.87;17.17;;;;;;;35.27;45.10;101223.16;6129243;23;20772;-68
2022/07/14 05:00:15;;;;;;;31.50;16.83;;;;;;;35.39;45.38;101219.31;6128652;23;20381;-71
2022/07/14 05:02:44;;;;;;;43.77;16.77;;;;;;;35.51;44.84;101215.22;6153692;23;20876;-71
2022/07/14 05:05:12;;;;;;;32.57;15.20;;;;;;;35.47;45.11;101229.53;6245233;22;20386;-68
2022/07/14 05:07:39;;;;;;;40.73;16.60;;;;;;;35.16;46.12;101227.00;6276895;22;20353;-68
2022/07/14 05:10:08;;;;;;;42.23;15.93;;;;;;;35.14;46.32;101231.88;6249394;22;20438;-68
2022/07/14 05:12:34;;;;;;;39.17;18.57;;;;;;;35.26;45.99;101234.25;6249592;22;20561;-68
2022/07/14 05:15:02;;;;;;;36.83;18.53;;;;;;;35.37;45.49;101225.00;6248674;22;20854;-68
2022/07/14 05:17:30;;;;;;;32.47;14.40;;;;;;;35.32;45.36;101219.63;6276998;22;20394;-68
2022/07/14 05:19:57;;;;;;;28.17;18.30;;;;;;;35.25;45.63;101228.03;6249515;22;20384;-68
2022/07/14 05:22:25;;;;;;;44.27;16.33;;;;;;;35.13;45.52;101232.97;6249696;22;20385;-70
2022/07/14 05:24:52;;;;;;;38.07;16.67;;;;;;;35.06;45.55;101229.75;6249531;22;20413;-71
2022/07/14 05:27:19;;;;;;;39.80;18.17;;;;;;;35.14;45.72;101225.69;6276785;22;20408;-71
2022/07/14 05:29:46;;;;;;;44.70;17.73;;;;;;;35.21;45.86;101231.56;6248622;22;20389;-70
2022/07/14 05:32:12;;;;;;;24.43;15.63;;;;;;;35.32;45.70;101229.63;6276459;22;20504;-68
2022/07/14 05:34:43;;;;;;;31.30;16.40;;;;;;;35.41;45.53;101234.13;6248999;22;20385;-68
2022/07/14 05:37:10;;;;;;;38.97;15.40;;;;;;;35.47;45.52;101233.03;6249265;22;20392;-68
2022/07/14 05:39:39;;;;;;;33.67;14.50;;;;;;;35.52;45.38;101238.41;6275576;22;20397;-68
2022/07/14 05:42:06;;;;;;;36.70;16.67;;;;;;;35.50;45.17;101232.50;6248907;22;20386;-68
2022/07/14 05:44:37;;;;;;;36.50;15.50;;;;;;;34.96;45.96;101236.00;6248913;22;20449;-68
2022/07/14 05:47:04;;;;;;;30.97;16.77;;;;;;;35.10;45.73;101236.19;6248998;22;20406;-68
2022/07/14 05:49:32;;;;;;;40.87;17.13;;;;;;;34.92;46.38;101236.78;6224120;22;20504;-68
2022/07/14 05:52:00;;;;;;;25.50;14.20;;;;;;;34.82;46.00;101236.84;6248890;22;20417;-68
2022/07/14 05:54:26;;;;;;;41.97;17.30;;;;;;;34.78;46.34;101227.69;6248888;22;20800;-68
2022/07/14 05:56:53;;;;;;;25.00;15.77;;;;;;;34.91;45.79;101230.59;6249273;22;20378;-67
2022/07/14 05:59:20;;;;;;;28.73;14.40;;;;;;;34.88;46.08;101224.97;6248710;22;20403;-68
2022/07/14 06:01:47;;;;;;;29.37;15.37;;;;;;;34.99;45.48;101240.06;6249250;22;20442;-69
2022/07/14 06:04:14;;;;;;;28.00;16.00;;;;;;;34.91;44.99;101241.38;6248921;22;20438;-69
2022/07/14 06:06:48;;;;;;;41.80;16.87;;;;;;;35.02;45.34;101246.75;6249177;22;20442;-69
2022/07/14 06:09:15;;;;;;;39.57;18.73;;;;;;;35.04;45.31;101248.09;6249215;22;20379;-73
2022/07/14 06:11:44;;;;;;;43.67;21.10;;;;;;;35.27;44.99;101258.22;6248748;22;20423;-71
2022/07/14 06:14:13;;;;;;;37.53;17.60;;;;;;;35.07;45.29;101260.22;6248824;22;20460;-69
2022/07/14 06:16:40;;;;;;;25.00;14.07;;;;;;;35.17;45.62;101268.25;6224167;22;20466;-71
2022/07/14 06:19:07;;;;;;;27.90;15.77;;;;;;;35.18;45.65;101269.88;6248965;22;20377;-69
2022/07/14 06:21:33;;;;;;;34.17;15.63;;;;;;;35.23;45.41;101272.53;6223560;22;20388;-73
2022/07/14 06:24:00;;;;;;;27.10;15.63;;;;;;;35.24;45.30;101280.38;6248693;22;20416;-72
2022/07/14 06:26:26;;;;;;;43.80;18.23;;;;;;;35.18;45.76;101277.97;6248974;22;20382;-72
2022/07/14 06:28:52;;;;;;;26.03;16.03;;;;;;;34.96;46.22;101279.13;6248905;22;20459;-69
2022/07/14 06:31:18;;;;;;;39.67;17.80;;;;;;;35.08;45.98;101283.41;6275068;22;20741;-69
2022/07/14 06:33:45;;;;;;;29.50;15.60;;;;;;;34.87;46.20;101278.06;6247200;22;20456;-70
2022/07/14 06:36:11;;;;;;;44.97;17.47;;;;;;;35.25;45.82;101286.56;6247131;22;20378;-68
2022/07/14 17:56:28;;;;;;;38.57;19.27;;;;;;;36.75;42.19;100975.91;6116844;23;20615;-70
2022/07/14 17:58:54;;;;;;;31.60;19.20;;;;;;;36.82;42.38;100983.63;6249080;22;20499;-71
2022/07/14 18:01:20;;;;;;;37.57;18.53;;;;;;;36.73;42.74;100978.13;6249178;22;20402;-69
2022/07/14 18:03:46;;;;;;;32.23;12.87;;;;;;;36.65;42.09;100980.66;6273583;22;20370;-69
2022/07/14 18:06:12;;;;;;;26.93;13.23;;;;;;;36.74;42.46;100984.31;6275550;22;20829;-68
2022/07/14 18:08:38;;;;;;;50.43;21.37;;;;;;;36.56;42.86;100991.34;6248957;22;20365;-70
2022/07/14 18:11:04;;;;;;;55.70;22.40;;;;;;;36.70;42.69;100994.13;6247723;22;20424;-67
2022/07/14 18:13:31;;;;;;;35.17;21.43;;;;;;;36.66;43.00;101001.22;6248339;22;20856;-69
2022/07/14 18:15:57;;;;;;;38.03;19.00;;;;;;;36.65;42.54;100999.59;6275839;22;20427;-69
2022/07/14 18:18:23;;;;;;;23.20;14.37;;;;;;;36.48;42.49;101003.63;6248231;22;20451;-69
2022/07/14 18:20:49;;;;;;;29.53;17.13;;;;;;;36.45;42.78;100998.81;6223779;22;20354;-69
2022/07/14 18:23:15;;;;;;;29.43;17.10;;;;;;;36.73;42.56;100997.03;6198039;22;20390;-71
2022/07/14 18:25:41;;;;;;;33.73;17.70;;;;;;;36.49;43.03;100996.34;6248227;22;20396;-69
2022/07/14 18:28:08;;;;;;;30.47;15.07;;;;;;;36.47;43.45;100995.84;6248680;22;20468;-69
2022/07/14 18:30:34;;;;;;;46.23;19.30;;;;;;;36.48;43.15;100994.72;6248576;22;20534;-70
2022/07/14 18:33:00;;;;;;;33.20;16.10;;;;;;;36.38;42.95;100995.63;6248745;22;20422;-69
2022/07/14 18:35:26;;;;;;;32.30;15.00;;;;;;;36.26;43.23;101000.66;6248388;22;20400;-69
2022/07/14 18:37:52;;;;;;;22.23;14.13;;;;;;;36.09;43.86;100997.66;6275761;22;20705;-68
2022/07/14 18:40:21;;;;;;;32.23;13.37;;;;;;;36.13;43.52;101001.41;6248728;22;20892;-69
2022/07/14 18:42:47;;;;;;;33.87;15.30;;;;;;;36.14;43.59;100994.91;6247905;22;20427;-71
2022/07/14 18:47:58;;;;;;;31.40;14.40;;;;;;;36.04;43.71;101002.03;6275905;22;20911;-68
2022/07/14 18:50:25;;;;;;;33.43;15.87;;;;;;;36.22;44.11;101013.16;6248654;22;20405;-69
2022/07/14 18:52:53;;;;;;;26.37;14.63;;;;;;;36.13;43.98;101004.09;6248681;22;20396;-70
2022/07/14 18:55:22;;;;;;;28.67;14.90;;;;;;;36.24;43.44;101011.78;6248367;22;20468;-69
2022/07/14 18:57:50;;;;;;;31.30;13.50;;;;;;;36.21;43.80;101022.34;6187954;23;21012;-69
2022/07/14 19:00:19;;;;;;;27.57;13.00;;;;;;;36.22;44.05;101023.97;6238356;23;20422;-68
2022/07/14 19:02:46;;;;;;;34.27;16.10;;;;;;;36.16;43.90;101036.75;6214749;23;20439;-68
2022/07/14 19:05:12;;;;;;;25.90;13.63;;;;;;;36.22;43.72;101042.88;6237602;23;20391;-69
2022/07/14 19:07:40;;;;;;;35.30;15.63;;;;;;;36.25;43.55;101040.38;6213685;23;20391;-69
2022/07/14 19:10:09;;;;;;;43.50;16.27;;;;;;;36.45;43.61;101047.44;6212909;23;20727;-69
2022/07/14 19:12:36;;;;;;;32.03;15.30;;;;;;;36.47;43.71;101057.97;6237960;23;20434;-68
2022/07/14 19:15:05;;;;;;;22.73;12.70;;;;;;;36.56;43.21;101064.31;6212698;23;20786;-68
2022/07/14 19:17:31;;;;;;;37.83;20.03;;;;;;;36.50;43.70;101066.28;6212004;23;20474;-67
2022/07/14 19:19:58;;;;;;;29.10;16.80;;;;;;;36.50;43.41;101062.78;6213015;23;20395;-69
2022/07/14 19:22:25;;;;;;;31.57;14.67;;;;;;;36.45;43.86;101065.53;6238027;23;20470;-68
2022/07/14 19:24:51;;;;;;;28.70;14.30;;;;;;;36.53;43.57;101071.13;6215238;23;20356;-68
2022/07/14 19:27:17;;;;;;;25.40;14.33;;;;;;;36.52;43.54;101069.53;6238152;23;20390;-68
2022/07/14 19:29:44;;;;;;;27.33;15.90;;;;;;;36.53;43.94;101070.31;6238457;23;20391;-68
2022/07/14 19:32:11;;;;;;;33.80;18.40;;;;;;;36.41;44.19;101086.94;6213126;23;20715;-68
2022/07/14 19:34:38;;;;;;;29.83;16.17;;;;;;;36.29;43.89;101090.03;6238464;23;20391;-69
2022/07/14 19:37:04;;;;;;;31.50;15.47;;;;;;;36.37;44.07;101085.88;6212972;23;20472;-70
2022/07/14 19:39:30;;;;;;;36.43;16.60;;;;;;;36.45;43.96;101087.16;6238116;23;20906;-68
2022/07/14 19:41:56;;;;;;;29.33;16.33;;;;;;;36.53;43.97;101098.13;6238437;23;20387;-68
2022/07/14 19:44:23;;;;;;;50.20;20.00;;;;;;;36.53;44.05;101097.34;6214905;23;20364;-68
2022/07/14 19:46:49;;;;;;;30.20;18.00;;;;;;;36.54;43.76;101102.44;6238280;23;20466;-68
2022/07/14 19:49:15;;;;;;;36.23;14.97;;;;;;;36.57;43.41;101106.44;6238017;23;20804;-70
2022/07/14 19:51:46;;;;;;;43.97;18.57;;;;;;;36.51;43.68;101105.72;6214500;23;20871;-70
2022/07/14 19:54:12;;;;;;;32.80;16.43;;;;;;;36.46;43.82;101104.97;6238080;23;20399;-70
2022/07/14 19:56:39;;;;;;;30.83;15.73;;;;;;;36.38;43.80;101106.41;6214052;23;20498;-70
2022/07/14 19:59:06;;;;;;;34.30;15.90;;;;;;;36.51;44.24;101107.63;6243349;23;20791;-70
2022/07/14 20:01:32;;;;;;;40.03;17.07;;;;;;;36.49;43.50;101105.22;6247140;23;20448;-70
2022/07/14 20:03:59;;;;;;;29.80;16.20;;;;;;;36.49;44.04;101118.72;6246197;23;20814;-68
2022/07/14 20:06:25;;;;;;;24.97;18.03;;;;;;;36.48;43.58;101117.13;6245006;23;20394;-69
2022/07/14 20:08:53;;;;;;;24.53;15.97;;;;;;;36.62;43.89;101127.22;6245776;23;20382;-69
2022/07/14 20:11:19;;;;;;;29.13;14.00;;;;;;;36.63;43.72;101121.50;6247147;23;20434;-69
2022/07/14 20:13:45;;;;;;;62.77;19.20;;;;;;;36.54;43.92;101129.47;6245047;23;20390;-69
2022/07/14 20:16:14;;;;;;;36.67;15.60;;;;;;;36.39;44.25;101134.22;6244795;23;20378;-69
2022/07/14 20:18:41;;;;;;;28.60;16.10;;;;;;;36.47;44.28;101129.03;6244688;23;20838;-69
2022/07/14 20:21:07;;;;;;;38.07;18.10;;;;;;;36.35;44.43;101131.31;6194632;23;20437;-69
2022/07/14 20:23:33;;;;;;;18.13;12.50;;;;;;;36.27;43.93;101143.53;6219853;23;20464;-68
2022/07/14 20:25:59;;;;;;;46.83;18.40;;;;;;;36.40;44.33;101139.38;6245065;23;20405;-69
2022/07/14 20:33:54;;;;;;;32.10;15.20;;;;;;;36.28;44.49;101136.25;6246529;23;20424;-68
2022/07/14 20:36:20;;;;;;;29.83;14.17;;;;;;;36.33;44.26;101152.38;6218593;23;20439;-68
2022/07/14 20:38:46;;;;;;;32.80;14.57;;;;;;;36.37;44.56;101150.72;6243940;23;20386;-68
2022/07/14 20:41:12;;;;;;;53.73;16.37;;;;;;;36.36;44.28;101156.41;6244157;23;20417;-68
2022/07/14 20:43:39;;;;;;;34.73;18.17;;;;;;;36.25;44.62;101150.31;6219104;23;20386;-69
2022/07/14 20:47:12;;;;;;;28.77;16.53;;;;;;;36.20;44.09;101150.38;6218395;23;20393;-68
2022/07/14 20:48:51;;;;;;;33.37;16.17;;;;;;;36.23;44.94;101149.81;6245982;22;20374;-70
2022/07/14 20:51:21;;;;;;;35.97;16.27;;;;;;;36.21;44.87;101144.69;6218120;23;20425;-68
2022/07/14 20:53:48;;;;;;;35.83;15.67;;;;;;;36.10;44.77;101148.59;6246177;23;20370;-70
2022/07/14 20:56:18;;;;;;;41.77;15.67;;;;;;;36.04;44.90;101153.25;6244860;23;20358;-71
2022/07/14 20:58:47;;;;;;;33.73;16.10;;;;;;;36.01;45.09;101151.13;6244631;23;20428;-70
2022/07/14 21:01:14;;;;;;;44.40;22.53;;;;;;;36.10;45.80;101155.91;6242308;23;20379;-71
2022/07/14 21:03:41;;;;;;;35.90;17.83;;;;;;;36.21;44.92;101158.19;6194409;23;20387;-69
2022/07/14 21:06:09;;;;;;;28.37;15.63;;;;;;;36.27;45.01;101156.22;6219179;23;20387;-68
2022/07/14 21:08:35;;;;;;;47.00;15.40;;;;;;;36.25;44.70;101158.44;6245478;23;20401;-71
2022/07/14 21:11:04;;;;;;;32.67;17.30;;;;;;;35.99;45.18;101166.00;6245610;23;20429;-70
2022/07/14 21:13:31;;;;;;;32.03;15.83;;;;;;;36.00;44.85;101165.72;6244592;23;20855;-69
2022/07/14 21:15:57;;;;;;;26.03;13.10;;;;;;;35.92;44.71;101179.03;6244569;23;20465;-69
2022/07/14 21:18:26;;;;;;;38.03;17.10;;;;;;;36.15;44.13;101178.22;6244557;23;20389;-68
2022/07/14 21:20:53;;;;;;;40.67;17.93;;;;;;;36.39;44.61;101186.38;6245822;23;20359;-69
2022/07/14 21:23:19;;;;;;;33.70;14.77;;;;;;;36.19;44.60;101181.97;6218305;23;20413;-69
2022/07/14 21:25:45;;;;;;;29.50;11.90;;;;;;;36.01;44.97;101180.81;6244538;23;20390;-69
2022/07/14 21:28:12;;;;;;;31.73;17.40;;;;;;;36.13;45.38;101187.72;6245857;23;20369;-69
2022/07/14 21:30:39;;;;;;;27.80;14.33;;;;;;;36.19;44.94;101186.59;6218951;23;20941;-69
2022/07/14 21:33:06;;;;;;;38.10;18.60;;;;;;;36.30;45.01;101188.09;6219036;23;20413;-69
2022/07/14 21:35:32;;;;;;;36.63;15.53;;;;;;;36.35;44.44;101198.84;6244315;23;20513;-70
2022/07/14 21:37:58;;;;;;;47.93;18.43;;;;;;;36.31;44.79;101200.50;6244408;23;20414;-69
2022/07/14 21:40:27;;;;;;;30.43;16.97;;;;;;;36.33;44.33;101203.72;6245112;23;20385;-70
2022/07/14 21:42:54;;;;;;;41.67;14.53;;;;;;;36.34;45.05;101208.03;6244525;23;20381;-71
2022/07/14 21:45:21;;;;;;;27.30;14.73;;;;;;;36.23;44.87;101207.34;6244465;23;20382;-69
2022/07/14 21:47:47;;;;;;;33.00;13.97;;;;;;;36.24;45.04;101217.03;6219208;23;20391;-69
2022/07/14 21:50:13;;;;;;;32.33;16.87;;;;;;;36.10;45.34;101204.50;6243406;23;20410;-70
2022/07/14 21:52:43;;;;;;;22.47;12.70;;;;;;;36.17;45.15;101215.78;6246085;23;20405;-70
2022/07/14 21:55:09;;;;;;;28.97;14.30;;;;;;;36.18;44.77;101209.28;6245994;23;20383;-70
2022/07/14 21:57:39;;;;;;;29.20;14.20;;;;;;;36.13;44.78;101214.72;6218745;23;20466;-70
2022/07/14 22:00:08;;;;;;;32.47;16.23;;;;;;;36.13;45.10;101217.44;6246227;23;20445;-70
2022/07/14 22:02:36;;;;;;;41.53;14.70;;;;;;;36.14;45.37;101217.13;6218754;23;20465;-70
2022/07/14 22:05:04;;;;;;;26.90;16.97;;;;;;;35.89;45.64;101215.44;6246125;23;20386;-69
2022/07/14 22:07:31;;;;;;;36.87;13.63;;;;;;;35.81;45.87;101221.47;6245036;23;20405;-69
2022/07/14 22:09:58;;;;;;;38.63;14.83;;;;;;;35.86;45.65;101209.84;6244098;23;20382;-69
2022/07/14 22:12:31;;;;;;;30.13;13.63;;;;;;;35.53;45.65;101206.84;6245275;23;20402;-69
2022/07/14 22:14:57;;;;;;;29.10;14.10;;;;;;;35.67;45.34;101218.63;6244338;23;20926;-69
2022/07/14 22:17:28;;;;;;;38.07;15.00;;;;;;;35.44;46.93;101217.44;6245725;23;20819;-69
2022/07/14 22:19:55;;;;;;;31.90;14.03;;;;;;;35.70;45.73;101217.25;6244573;23;20394;-71
2022/07/14 22:22:22;;;;;;;42.40;18.40;;;;;;;35.43;46.19;101215.81;6218134;23;20390;-71
2022/07/14 22:24:48;;;;;;;27.17;12.97;;;;;;;35.64;45.47;101215.66;6219104;23;20438;-71
2022/07/14 22:27:17;;;;;;;28.57;13.57;;;;;;;35.57;46.22;101212.50;6218951;23;20366;-72
2022/07/14 22:29:49;;;;;;;51.13;17.60;;;;;;;35.48;46.01;101217.66;6243855;23;20733;-72
2022/07/14 22:32:15;;;;;;;29.67;15.23;;;;;;;35.55;45.83;101222.75;6218603;23;20442;-70
2022/07/14 22:34:43;;;;;;;24.43;13.30;;;;;;;35.32;46.08;101222.34;6245572;23;20363;-71
2022/07/14 22:37:11;;;;;;;39.37;16.50;;;;;;;35.50;45.45;101227.09;6243965;23;20386;-71
2022/07/14 22:39:38;;;;;;;31.73;16.87;;;;;;;35.58;46.07;101233.78;6218484;23;20410;-71
2022/07/14 22:42:10;;;;;;;27.30;13.57;;;;;;;35.77;45.61;101229.31;6244998;23;20359;-71